Time;durP1;ratioP1;P1;durP2;ratioP2;P2;SDS_P1;SDS_P2;PMS_P1;PMS_P2;Temp;Humidity;BMP_temperature;BMP_pressure;BME280_temperature;BME280_humidity;BME280_pressure;Samples;Min_cycle;Max_cycle;Signal;HPM_P1;HPM_P2
2022/03/25 00:00:31;;;;;;;65.00;23.35;;;;;;;2.52;100.00;99863.50;4423563;32;20454;-73
2022/03/25 00:03:08;;;;;;;57.70;23.08;;;;;;;2.43;100.00;99851.25;4420249;32;20148;-75
2022/03/25 00:05:34;;;;;;;59.05;21.00;;;;;;;2.43;100.00;99867.19;4413209;32;20411;-73
2022/03/25 00:08:02;;;;;;;66.47;23.60;;;;;;;2.38;100.00;99853.63;4410157;32;20156;-74
2022/03/25 00:10:28;;;;;;;55.30;21.77;;;;;;;2.35;100.00;99860.09;4406516;32;20426;-72
2022/03/25 00:12:55;;;;;;;63.53;21.20;;;;;;;2.24;100.00;99846.41;4409701;32;20051;-72
2022/03/25 00:15:22;;;;;;;56.67;21.17;;;;;;;2.18;100.00;99843.41;4402341;32;20326;-74
2022/03/25 00:17:48;;;;;;;62.38;23.52;;;;;;;1.95;100.00;99805.38;4410203;32;20089;-73
2022/03/25 00:20:14;;;;;;;54.22;21.45;;;;;;;2.20;100.00;99851.22;4408245;32;20054;-72
2022/03/25 00:22:41;;;;;;;58.03;22.02;;;;;;;2.15;100.00;99851.78;4417653;32;20042;-72
2022/03/25 00:25:08;;;;;;;52.00;20.58;;;;;;;2.11;100.00;99847.78;4410126;32;20474;-73
2022/03/25 00:27:35;;;;;;;56.28;22.90;;;;;;;1.78;100.00;99808.09;4401536;32;20054;-73
2022/03/25 00:30:03;;;;;;;58.08;21.08;;;;;;;2.04;100.00;99849.47;4415544;32;20064;-73
2022/03/25 00:32:30;;;;;;;63.85;21.17;;;;;;;2.00;100.00;99856.16;4413661;32;20064;-73
2022/03/25 00:34:56;;;;;;;51.42;20.45;;;;;;;1.54;100.00;99771.06;4403584;32;20428;-73
2022/03/25 00:37:24;;;;;;;63.42;24.80;;;;;;;1.84;100.00;99824.38;4409714;32;20058;-74
2022/03/25 00:39:51;;;;;;;71.93;26.37;;;;;;;1.68;100.00;99810.16;4406286;32;20023;-73
2022/03/25 00:42:18;;;;;;;61.40;23.00;;;;;;;1.79;100.00;99833.66;4413453;32;20068;-73
2022/03/25 00:44:47;;;;;;;63.40;23.87;;;;;;;1.79;100.00;99838.97;4417545;32;20038;-73
2022/03/25 00:47:14;;;;;;;63.30;23.60;;;;;;;1.76;100.00;99838.50;4417162;32;20101;-73
2022/03/25 00:49:40;;;;;;;62.40;23.10;;;;;;;1.52;100.00;99795.13;4416383;32;20064;-75
2022/03/25 00:52:07;;;;;;;47.67;21.60;;;;;;;1.64;100.00;99819.47;4415385;32;20068;-73
2022/03/25 00:54:36;;;;;;;54.83;23.38;;;;;;;1.67;100.00;99835.03;4414002;32;20098;-73
2022/03/25 00:57:02;;;;;;;59.78;19.85;;;;;;;1.63;100.00;99818.63;4408336;32;20042;-73
2022/03/25 00:59:29;;;;;;;60.38;20.48;;;;;;;1.61;100.00;99825.09;4402793;32;20042;-72
2022/03/25 01:01:56;;;;;;;63.75;22.90;;;;;;;1.52;100.00;99815.53;4400239;32;20051;-74
2022/03/25 01:04:23;;;;;;;53.30;20.20;;;;;;;1.23;100.00;99779.81;4409541;32;20055;-73
2022/03/25 01:06:51;;;;;;;50.05;19.77;;;;;;;1.52;100.00;99821.66;4431703;32;20067;-73
2022/03/25 01:09:17;;;;;;;63.40;20.45;;;;;;;1.32;100.00;99800.00;4423988;32;20027;-73
2022/03/25 01:11:44;;;;;;;56.05;22.20;;;;;;;1.53;100.00;99827.81;4422534;32;20050;-76
2022/03/25 01:14:11;;;;;;;53.10;20.33;;;;;;;1.19;100.00;99778.50;4421244;32;20031;-73
2022/03/25 01:16:37;;;;;;;52.95;19.30;;;;;;;1.49;100.00;99831.81;4416230;32;20101;-73
2022/03/25 01:19:04;;;;;;;55.72;19.48;;;;;;;1.09;100.00;99784.81;4426006;32;20038;-73
2022/03/25 01:21:32;;;;;;;52.53;20.35;;;;;;;1.27;100.00;99818.25;4417103;32;20038;-72
2022/03/25 01:23:58;;;;;;;56.53;21.73;;;;;;;1.25;100.00;99818.44;4426036;32;20112;-74
2022/03/25 01:26:25;;;;;;;57.92;21.33;;;;;;;1.05;100.00;99780.84;4418489;32;20084;-73
2022/03/25 01:28:59;;;;;;;50.50;20.12;;;;;;;1.34;100.00;99827.22;4417607;32;20071;-73
2022/03/25 01:31:26;;;;;;;60.10;21.20;;;;;;;1.24;100.00;99823.91;4415833;32;20039;-73
2022/03/25 01:33:53;;;;;;;72.90;23.40;;;;;;;1.03;100.00;99796.09;4417736;32;20383;-76
2022/03/25 01:36:20;;;;;;;53.03;21.85;;;;;;;1.20;100.00;99831.38;4408385;32;20051;-72
2022/03/25 01:38:46;;;;;;;61.35;20.27;;;;;;;1.18;100.00;99829.88;4421270;32;20051;-73
2022/03/25 01:41:18;;;;;;;59.55;22.05;;;;;;;0.83;100.00;99776.22;4410492;32;20064;-73
2022/03/25 01:43:52;;;;;;;56.92;21.08;;;;;;;1.15;100.00;99835.53;4428289;32;20379;-74
2022/03/25 01:46:19;;;;;;;63.45;20.02;;;;;;;1.13;100.00;99832.22;4423458;32;20054;-73
2022/03/25 01:48:45;;;;;;;67.40;21.83;;;;;;;0.82;100.00;99777.25;4429060;32;20100;-73
2022/03/25 01:51:27;;;;;;;60.80;22.75;;;;;;;1.11;100.00;99826.25;4420043;32;20093;-73
2022/03/25 01:53:54;;;;;;;60.00;21.92;;;;;;;1.06;100.00;99830.22;4422763;32;20066;-73
2022/03/25 01:56:22;;;;;;;63.22;23.80;;;;;;;1.01;100.00;99829.91;4425376;32;20072;-73
2022/03/25 01:58:50;;;;;;;72.40;21.35;;;;;;;0.97;100.00;99836.53;4420492;32;20022;-74
2022/03/25 02:01:17;;;;;;;60.60;22.98;;;;;;;0.60;100.00;99768.97;4425576;32;20076;-75
2022/03/25 02:03:44;;;;;;;61.47;21.77;;;;;;;0.59;100.00;99783.25;4404762;32;20060;-73
2022/03/25 02:06:11;;;;;;;65.93;24.85;;;;;;;0.86;100.00;99831.59;4413320;32;20061;-73
2022/03/25 02:08:37;;;;;;;66.07;25.15;;;;;;;0.80;100.00;99819.00;4427141;32;20067;-73
2022/03/25 02:11:09;;;;;;;72.62;25.10;;;;;;;0.83;100.00;99832.75;4426820;32;20037;-73
2022/03/25 02:13:36;;;;;;;82.53;27.20;;;;;;;0.49;100.00;99770.13;4426487;32;20030;-73
2022/03/25 02:16:03;;;;;;;69.30;26.85;;;;;;;0.82;100.00;99830.28;4428879;32;20092;-73
2022/03/25 02:18:30;;;;;;;59.95;22.20;;;;;;;0.76;100.00;99820.34;4412231;32;20038;-73
2022/03/25 02:20:57;;;;;;;64.78;22.10;;;;;;;0.51;100.00;99785.88;4421561;32;20056;-74
2022/03/25 02:23:24;;;;;;;70.93;23.92;;;;;;;0.99;100.00;99831.91;4428415;32;20087;-75
2022/03/25 02:25:52;;;;;;;66.20;22.25;;;;;;;1.17;100.00;99838.84;4423651;32;20063;-73
2022/03/25 02:28:20;;;;;;;70.62;23.52;;;;;;;1.23;100.00;99832.87;4420143;32;20393;-73
2022/03/25 02:30:47;;;;;;;51.55;18.10;;;;;;;0.88;100.00;99776.59;4420789;32;20071;-73
2022/03/25 02:33:14;;;;;;;62.97;20.48;;;;;;;1.26;100.00;99835.16;4408491;32;20039;-73
2022/03/25 02:35:49;;;;;;;58.72;23.80;;;;;;;1.29;100.00;99832.19;4420386;32;20091;-75
2022/03/25 02:38:19;;;;;;;74.75;24.37;;;;;;;1.42;100.00;99835.16;4425920;32;20046;-74
2022/03/25 02:40:46;;;;;;;85.53;22.98;;;;;;;1.45;100.00;99826.84;4423892;32;20046;-73
2022/03/25 02:43:13;;;;;;;59.50;23.15;;;;;;;1.13;100.00;99789.78;4412587;32;20060;-73
2022/03/25 02:45:41;;;;;;;64.03;23.30;;;;;;;1.41;100.00;99841.44;4424423;32;20560;-75
2022/03/25 02:48:09;;;;;;;78.90;24.87;;;;;;;1.34;100.00;99840.47;4424127;32;20051;-74
2022/03/25 02:50:35;;;;;;;66.10;24.30;;;;;;;1.24;100.00;99835.34;4417115;32;20046;-74
2022/03/25 02:53:03;;;;;;;76.35;23.65;;;;;;;1.14;100.00;99844.50;4401074;32;20352;-74
2022/03/25 02:55:30;;;;;;;62.20;22.92;;;;;;;1.05;100.00;99836.56;4426406;32;20050;-75
2022/03/25 02:57:56;;;;;;;61.60;22.95;;;;;;;0.98;100.00;99832.91;4420518;32;20129;-75
2022/03/25 03:00:26;;;;;;;66.82;23.12;;;;;;;0.60;100.00;99784.06;4424590;32;20030;-73
2022/03/25 03:02:53;;;;;;;63.63;23.90;;;;;;;0.78;100.00;99823.63;4416575;32;20034;-74
2022/03/25 03:05:21;;;;;;;62.53;24.55;;;;;;;0.68;100.00;99819.31;4409455;32;20026;-74
2022/03/25 03:07:49;;;;;;;58.15;22.87;;;;;;;0.76;100.00;99831.75;4427383;32;20071;-73
2022/03/25 03:10:16;;;;;;;64.12;22.05;;;;;;;0.77;100.00;99838.72;4401308;32;20043;-74
2022/03/25 03:12:43;;;;;;;68.68;22.77;;;;;;;0.44;100.00;99779.59;4408846;32;20042;-74
2022/03/25 03:15:11;;;;;;;66.47;22.23;;;;;;;0.72;100.00;99836.56;4419963;32;20486;-74
2022/03/25 03:17:37;;;;;;;61.95;22.65;;;;;;;0.69;100.00;99826.28;4414067;32;20056;-73
2022/03/25 03:20:06;;;;;;;59.58;22.48;;;;;;;0.65;100.00;99824.97;4420538;32;20113;-75
2022/03/25 03:22:32;;;;;;;65.03;22.70;;;;;;;0.56;100.00;99823.31;4430439;32;20058;-73
2022/03/25 03:24:59;;;;;;;60.75;23.00;;;;;;;0.50;100.00;99810.72;4429202;32;20042;-74
2022/03/25 03:27:27;;;;;;;75.78;23.55;;;;;;;0.52;100.00;99819.34;4428409;32;20046;-74
2022/03/25 03:29:54;;;;;;;59.45;22.67;;;;;;;0.19;100.00;99771.63;4416994;32;20038;-74
2022/03/25 03:32:21;;;;;;;56.72;21.05;;;;;;;0.53;100.00;99826.31;4423937;32;20434;-74
2022/03/25 03:34:47;;;;;;;51.80;20.17;;;;;;;0.15;100.00;99763.16;4402152;32;20048;-74
2022/03/25 03:37:13;;;;;;;66.82;20.83;;;;;;;0.44;100.00;99816.69;4421613;32;20038;-74
2022/03/25 03:39:40;;;;;;;52.47;20.98;;;;;;;0.21;100.00;99780.25;4424260;32;20046;-73
2022/03/25 03:42:14;;;;;;;56.15;20.25;;;;;;;0.32;100.00;99800.25;4429821;32;20037;-74
2022/03/25 03:44:41;;;;;;;65.62;21.95;;;;;;;0.18;100.00;99780.56;4428777;32;20097;-75
2022/03/25 03:47:08;;;;;;;53.25;21.20;;;;;;;0.26;100.00;99793.81;4430357;32;20042;-74
2022/03/25 03:49:35;;;;;;;56.08;21.15;;;;;;;0.39;100.00;99819.00;4415947;32;20056;-74
2022/03/25 03:52:04;;;;;;;64.25;22.80;;;;;;;0.23;100.00;99788.84;4431283;32;20068;-74
2022/03/25 03:54:32;;;;;;;61.35;21.05;;;;;;;0.51;100.00;99828.25;4436743;32;20083;-76
2022/03/25 03:56:59;;;;;;;55.30;22.77;;;;;;;0.78;100.00;99839.53;4435178;32;20382;-74
2022/03/25 03:59:26;;;;;;;81.20;27.30;;;;;;;0.88;100.00;99837.56;4430353;32;20046;-75
2022/03/25 04:01:52;;;;;;;54.38;21.80;;;;;;;0.89;100.00;99841.84;4431307;32;20039;-74
2022/03/25 04:04:19;;;;;;;51.72;20.17;;;;;;;0.99;100.00;99845.19;4431115;32;20076;-74
2022/03/25 04:06:45;;;;;;;60.03;22.25;;;;;;;1.19;100.00;99842.97;4420779;32;20043;-75
2022/03/25 04:09:11;;;;;;;61.72;20.95;;;;;;;1.45;100.00;99853.38;4410942;32;20107;-73
2022/03/25 04:11:38;;;;;;;58.92;23.20;;;;;;;1.66;100.00;99849.34;4428624;32;20039;-74
2022/03/25 04:14:05;;;;;;;64.70;22.55;;;;;;;1.67;100.00;99840.34;4419944;32;20070;-74
2022/03/25 04:16:31;;;;;;;74.90;24.12;;;;;;;1.52;100.00;99842.09;4420740;32;20426;-73
2022/03/25 04:18:57;;;;;;;72.30;23.08;;;;;;;1.36;100.00;99843.78;4419042;32;20050;-74
2022/03/25 04:21:30;;;;;;;70.75;23.73;;;;;;;1.16;100.00;99845.16;4418605;32;20108;-73
2022/03/25 04:23:57;;;;;;;68.72;24.23;;;;;;;0.68;100.00;99792.81;4428371;32;20434;-73
2022/03/25 04:26:24;;;;;;;75.87;26.00;;;;;;;0.90;100.00;99844.34;4409145;32;20042;-73
2022/03/25 04:28:50;;;;;;;76.80;26.52;;;;;;;0.75;100.00;99839.88;4423827;32;20162;-73
2022/03/25 04:31:23;;;;;;;65.40;26.02;;;;;;;0.36;100.00;99783.06;4425272;32;20454;-73
2022/03/25 04:33:50;;;;;;;76.70;25.25;;;;;;;0.56;100.00;99841.87;4419614;32;20063;-73
2022/03/25 04:36:16;;;;;;;70.37;25.58;;;;;;;0.61;100.00;99844.03;4418290;32;20030;-74
2022/03/25 04:38:43;;;;;;;60.78;23.70;;;;;;;0.58;100.00;99839.06;4423662;32;20044;-74
2022/03/25 04:41:16;;;;;;;57.05;24.45;;;;;;;0.23;100.00;99788.84;4408292;32;20056;-76
2022/03/25 04:43:43;;;;;;;76.28;23.62;;;;;;;0.52;100.00;99845.84;4426965;32;20352;-73
2022/03/25 04:46:09;;;;;;;63.03;23.95;;;;;;;0.48;100.00;99833.91;4432202;32;20038;-73
2022/03/25 04:48:37;;;;;;;61.75;24.55;;;;;;;0.36;100.00;99815.66;4417204;32;20042;-74
2022/03/25 04:51:11;;;;;;;61.50;22.37;;;;;;;0.48;100.00;99837.41;4409416;32;20065;-74
2022/03/25 04:53:38;;;;;;;63.53;23.05;;;;;;;0.47;100.00;99832.25;4428302;32;20054;-75
2022/03/25 04:56:05;;;;;;;60.20;24.25;;;;;;;0.46;100.00;99846.47;4409200;32;20018;-74
2022/03/25 04:58:31;;;;;;;65.20;22.67;;;;;;;0.12;100.00;99786.50;4424118;32;20038;-74
2022/03/25 05:00:58;;;;;;;61.45;21.20;;;;;;;0.10;100.00;99784.03;4423203;32;20068;-76
2022/03/25 05:03:24;;;;;;;68.45;23.08;;;;;;;0.39;100.00;99840.19;4407271;32;20419;-74
2022/03/25 05:05:50;;;;;;;73.65;23.75;;;;;;;0.12;100.00;99792.63;4418729;32;20184;-74
2022/03/25 05:08:17;;;;;;;56.03;23.40;;;;;;;0.44;100.00;99848.47;4430183;32;20383;-73
2022/03/25 05:10:44;;;;;;;72.53;23.75;;;;;;;0.09;100.00;99786.84;4425955;32;20042;-74
2022/03/25 05:13:10;;;;;;;75.68;25.20;;;;;;;0.43;100.00;99847.66;4421544;32;20053;-74
2022/03/25 05:15:37;;;;;;;75.03;26.35;;;;;;;0.42;100.00;99847.81;4413125;32;20064;-73
2022/03/25 05:18:04;;;;;;;86.68;26.02;;;;;;;-0.08;100.00;99755.06;4420001;32;20046;-73
2022/03/25 05:20:30;;;;;;;85.72;25.33;;;;;;;0.54;100.00;99857.94;4426744;32;20038;-73
2022/03/25 05:22:57;;;;;;;66.28;25.90;;;;;;;0.54;100.00;99860.59;4428614;32;20382;-73
2022/03/25 05:25:24;;;;;;;79.07;27.02;;;;;;;0.57;100.00;99859.41;4409437;32;20048;-74
2022/03/25 05:27:53;;;;;;;90.60;27.70;;;;;;;0.59;100.00;99862.75;4411648;32;20046;-73
2022/03/25 05:30:22;;;;;;;73.37;26.67;;;;;;;0.33;100.00;99810.69;4415233;32;20042;-74
2022/03/25 05:32:48;;;;;;;70.07;27.17;;;;;;;0.31;100.00;99791.50;4425722;32;20030;-73
2022/03/25 05:35:15;;;;;;;70.03;27.10;;;;;;;0.75;100.00;99863.72;4422107;32;20150;-74
2022/03/25 05:37:42;;;;;;;76.07;25.33;;;;;;;0.79;100.00;99862.41;4411428;32;20088;-78
2022/03/25 05:40:11;;;;;;;68.37;24.35;;;;;;;0.78;100.00;99860.75;4406791;32;20428;-76
2022/03/25 05:42:37;;;;;;;73.18;25.55;;;;;;;0.57;100.00;99822.31;4422054;32;20041;-75
2022/03/25 05:45:05;;;;;;;84.62;29.23;;;;;;;0.96;100.00;99869.38;4409230;32;20067;-75
2022/03/25 05:47:33;;;;;;;68.43;24.40;;;;;;;0.72;100.00;99810.06;4421376;32;20054;-74
2022/03/25 05:49:59;;;;;;;80.87;24.55;;;;;;;0.79;100.00;99812.03;4406521;32;20031;-74
2022/03/25 05:52:27;;;;;;;77.65;26.92;;;;;;;1.23;100.00;99870.03;4409407;32;20054;-76
2022/03/25 05:55:01;;;;;;;75.15;26.85;;;;;;;1.01;100.00;99819.31;4411201;32;20030;-75
2022/03/25 05:57:27;;;;;;;63.75;24.35;;;;;;;1.13;100.00;99821.59;4421414;32;20030;-77
2022/03/25 05:59:57;;;;;;;66.47;23.55;;;;;;;1.55;100.00;99873.59;4409598;32;20385;-76
2022/03/25 06:02:24;;;;;;;71.47;23.42;;;;;;;1.36;100.00;99833.16;4407711;32;20089;-76
2022/03/25 06:04:51;;;;;;;57.47;23.33;;;;;;;1.78;100.00;99877.16;4395665;32;20224;-76
2022/03/25 06:07:19;;;;;;;52.28;20.08;;;;;;;1.55;100.00;99820.50;4420984;32;20030;-79
2022/03/25 06:09:46;;;;;;;51.00;20.00;;;;;;;2.03;100.00;99885.03;4406473;32;20054;-76
2022/03/25 06:12:13;;;;;;;49.97;19.33;;;;;;;2.14;100.00;99879.34;4419674;32;20031;-77
2022/03/25 06:14:39;;;;;;;64.72;23.12;;;;;;;2.34;100.00;99873.56;4422496;32;20101;-77
2022/03/25 06:17:06;;;;;;;58.90;19.95;;;;;;;2.59;100.00;99884.06;4423011;32;20050;-78
2022/03/25 06:19:33;;;;;;;46.37;19.12;;;;;;;2.49;100.00;99834.59;4421963;32;20045;-78
2022/03/25 06:21:59;;;;;;;51.00;19.33;;;;;;;2.83;100.00;99862.59;4409181;32;20184;-77
2022/03/25 06:24:26;;;;;;;51.28;19.20;;;;;;;2.79;100.00;99824.03;4410283;32;20034;-74
2022/03/25 06:26:53;;;;;;;49.45;19.75;;;;;;;3.27;100.00;99875.19;4421266;32;20485;-77
2022/03/25 06:29:19;;;;;;;51.92;18.50;;;;;;;3.42;100.00;99869.03;4419508;32;20081;-75
2022/03/25 06:31:46;;;;;;;52.25;19.77;;;;;;;3.58;100.00;99876.84;4417428;32;20437;-79
2022/03/25 06:34:20;;;;;;;51.37;17.73;;;;;;;3.44;100.00;99827.91;4422620;32;20060;-74
2022/03/25 06:36:50;;;;;;;53.17;18.92;;;;;;;3.92;100.00;99883.44;4422303;32;20034;-77
2022/03/25 06:39:21;;;;;;;43.75;16.30;;;;;;;3.59;100.00;99808.44;4401512;32;20340;-76
2022/03/25 06:41:49;;;;;;;46.20;17.92;;;;;;;4.08;100.00;99863.75;4408848;32;20118;-76
2022/03/25 06:44:19;;;;;;;64.87;18.40;;;;;;;4.25;100.00;99871.56;4408698;32;20037;-77
2022/03/25 06:46:45;;;;;;;49.28;18.40;;;;;;;4.17;100.00;99837.84;4425154;32;20038;-75
2022/03/25 06:49:14;;;;;;;46.75;19.25;;;;;;;4.53;100.00;99864.47;4425929;32;20157;-76
2022/03/25 06:51:41;;;;;;;47.67;16.85;;;;;;;4.78;100.00;99884.59;4419414;32;20045;-75
2022/03/25 06:54:08;;;;;;;44.67;16.17;;;;;;;4.75;100.00;99863.66;4413965;32;20359;-76
2022/03/25 06:56:35;;;;;;;46.97;18.70;;;;;;;4.95;100.00;99872.66;4430411;32;20489;-75
2022/03/25 06:59:02;;;;;;;43.83;18.00;;;;;;;5.17;100.00;99880.63;4408174;32;20035;-76
2022/03/25 07:01:32;;;;;;;55.05;18.12;;;;;;;5.27;100.00;99876.59;4426372;32;20179;-75
2022/03/25 07:03:59;;;;;;;56.50;15.30;;;;;;;5.53;100.00;99895.69;4424223;32;20045;-75
2022/03/25 07:06:26;;;;;;;42.03;16.08;;;;;;;5.70;100.00;99891.69;4421663;32;20128;-76
2022/03/25 07:08:55;;;;;;;51.22;19.35;;;;;;;5.86;100.00;99889.72;4411554;32;20077;-75
2022/03/25 07:11:22;;;;;;;46.37;17.23;;;;;;;5.91;100.00;99850.66;4423302;32;20392;-78
2022/03/25 07:13:51;;;;;;;62.83;18.75;;;;;;;6.20;98.42;99845.25;4425147;32;20418;-75
2022/03/25 07:16:18;;;;;;;74.75;20.88;;;;;;;6.55;100.00;99894.13;4423254;32;20052;-77
2022/03/25 07:18:45;;;;;;;70.18;21.75;;;;;;;6.72;100.00;99894.56;4429377;32;20907;-74
2022/03/25 07:21:12;;;;;;;52.85;20.25;;;;;;;6.89;99.47;99887.81;4430993;32;20063;-73
2022/03/25 07:23:39;;;;;;;59.42;19.48;;;;;;;6.82;94.79;99862.88;4421484;32;20115;-78
2022/03/25 07:26:07;;;;;;;63.13;20.10;;;;;;;7.30;90.35;99906.56;4401332;32;20061;-77
2022/03/25 07:28:34;;;;;;;51.88;18.60;;;;;;;7.39;84.25;99899.97;4420063;32;20058;-75
2022/03/25 07:31:01;;;;;;;63.30;20.52;;;;;;;7.64;80.76;99909.00;4426014;32;20045;-74
2022/03/25 07:33:27;;;;;;;68.40;20.33;;;;;;;7.43;83.89;99861.81;4422963;32;20038;-75
2022/03/25 07:35:55;;;;;;;64.97;20.95;;;;;;;7.55;85.78;99867.38;4430534;32;20347;-75
2022/03/25 07:38:22;;;;;;;55.00;20.27;;;;;;;7.90;83.79;99911.84;4427514;32;20046;-79
2022/03/25 07:40:48;;;;;;;48.85;18.60;;;;;;;7.82;83.87;99896.81;4430168;32;20797;-76
2022/03/25 07:43:15;;;;;;;43.50;15.88;;;;;;;7.99;80.69;99916.75;4415857;32;20335;-74
2022/03/25 07:45:42;;;;;;;34.25;15.82;;;;;;;7.79;75.57;99883.81;4422316;32;20339;-75
2022/03/25 07:48:08;;;;;;;36.67;16.15;;;;;;;8.16;71.17;99921.66;4412012;32;20085;-75
2022/03/25 07:50:35;;;;;;;49.38;17.05;;;;;;;7.97;72.73;99881.25;4414440;32;20060;-74
2022/03/25 07:53:02;;;;;;;39.63;13.52;;;;;;;8.31;70.43;99924.91;4421122;32;20085;-75
2022/03/25 07:55:29;;;;;;;43.53;15.32;;;;;;;8.26;65.48;99908.59;4422260;32;20037;-75
2022/03/25 07:57:57;;;;;;;40.90;15.13;;;;;;;8.30;64.42;99892.91;4430773;32;20178;-74
2022/03/25 08:00:24;;;;;;;55.88;14.93;;;;;;;8.28;61.28;99885.09;4429597;32;20034;-74
2022/03/25 08:02:53;;;;;;;64.53;15.73;;;;;;;8.34;62.65;99881.53;4408248;32;20034;-74
2022/03/25 08:05:20;;;;;;;39.38;14.65;;;;;;;8.57;60.23;99890.09;4416842;32;20190;-74
2022/03/25 08:07:54;;;;;;;45.20;15.77;;;;;;;8.85;60.17;99927.34;4423510;32;20035;-75
2022/03/25 08:10:24;;;;;;;49.20;16.20;;;;;;;8.96;58.55;99932.00;4422452;32;20033;-77
2022/03/25 08:12:53;;;;;;;41.67;15.38;;;;;;;8.91;59.50;99918.41;4406700;32;20386;-75
2022/03/25 08:15:20;;;;;;;48.03;14.52;;;;;;;8.78;56.67;99891.66;4429209;32;20351;-74
2022/03/25 08:18:02;;;;;;;37.83;14.30;;;;;;;8.96;53.87;99889.03;4420712;32;20058;-74
2022/03/25 08:20:41;;;;;;;38.30;11.85;;;;;;;9.28;52.50;99934.66;4427572;32;20072;-75
2022/03/25 08:23:13;;;;;;;33.90;13.35;;;;;;;9.23;51.41;99911.13;4427683;32;20112;-76
2022/03/25 08:28:25;;;;;;;39.47;15.38;;;;;;;9.50;49.74;99926.22;4420127;32;20046;-75
2022/03/25 08:30:52;;;;;;;37.83;16.30;;;;;;;9.52;51.35;99913.38;4421670;32;20069;-76
2022/03/25 08:33:19;;;;;;;29.40;10.48;;;;;;;9.29;49.54;99865.63;4426366;32;20093;-75
2022/03/25 08:35:47;;;;;;;24.85;9.95;;;;;;;9.51;46.16;99887.53;4423551;32;20083;-75
2022/03/25 08:38:13;;;;;;;27.25;10.52;;;;;;;9.49;45.32;99865.44;4419212;32;20068;-75
2022/03/25 08:40:41;;;;;;;24.75;11.48;;;;;;;9.81;44.99;99907.31;4410848;32;20035;-75
2022/03/25 08:43:14;;;;;;;33.50;12.35;;;;;;;9.76;45.81;99882.13;4424503;32;20059;-74
2022/03/25 08:45:40;;;;;;;34.55;11.65;;;;;;;10.12;45.18;99923.53;4425802;32;20030;-75
2022/03/25 08:48:07;;;;;;;29.12;12.52;;;;;;;10.17;45.63;99921.78;4414841;32;20040;-75
2022/03/25 08:50:34;;;;;;;31.12;13.52;;;;;;;9.71;46.46;99838.94;4411757;32;20050;-76
2022/03/25 08:53:00;;;;;;;22.27;10.13;;;;;;;10.29;46.71;99923.72;4420220;32;20093;-75
2022/03/25 08:55:26;;;;;;;35.20;10.05;;;;;;;10.32;45.75;99908.00;4424951;32;20034;-75
2022/03/25 08:57:53;;;;;;;28.33;9.45;;;;;;;10.45;44.25;99917.78;4419886;32;20046;-75
2022/03/25 09:00:20;;;;;;;31.40;10.25;;;;;;;10.45;42.60;99923.16;4423756;32;20109;-75
2022/03/25 09:02:47;;;;;;;28.20;9.85;;;;;;;10.56;42.05;99918.03;4398986;32;20042;-77
2022/03/25 09:05:15;;;;;;;20.02;9.57;;;;;;;10.64;41.47;99915.03;4402763;32;20068;-77
2022/03/25 09:07:43;;;;;;;24.52;9.73;;;;;;;10.72;42.25;99922.78;4413330;32;20387;-76
2022/03/25 09:10:14;;;;;;;19.50;9.02;;;;;;;10.71;42.18;99910.37;4425997;32;20108;-76
2022/03/25 09:12:42;;;;;;;23.45;11.02;;;;;;;10.53;41.16;99885.16;4407007;32;20083;-77
2022/03/25 09:15:11;;;;;;;17.17;7.95;;;;;;;10.85;41.42;99919.91;4432272;32;20103;-76
2022/03/25 09:17:37;;;;;;;23.87;9.20;;;;;;;10.59;40.43;99858.34;4423191;32;20081;-76
2022/03/25 09:20:05;;;;;;;25.77;8.98;;;;;;;10.92;40.39;99883.97;4418721;32;20083;-78
2022/03/25 09:22:34;;;;;;;38.60;11.63;;;;;;;11.09;40.21;99917.28;4412380;32;20047;-76
2022/03/25 09:25:03;;;;;;;20.40;9.93;;;;;;;11.03;40.18;99902.03;4419749;32;20425;-76
2022/03/25 09:27:29;;;;;;;20.37;9.05;;;;;;;11.13;40.47;99923.84;4419395;32;20041;-75
2022/03/25 09:29:56;;;;;;;29.95;9.85;;;;;;;10.93;40.47;99874.81;4428443;32;20067;-73
2022/03/25 09:32:22;;;;;;;19.73;8.38;;;;;;;11.04;39.62;99882.94;4421386;32;20062;-73
2022/03/25 09:37:39;;;;;;;18.87;9.82;;;;;;;11.45;39.20;99918.13;4417607;32;20042;-73
2022/03/25 09:40:09;;;;;;;16.87;9.05;;;;;;;11.53;39.65;99928.56;4426652;32;20710;-73
2022/03/25 09:42:36;;;;;;;19.08;8.15;;;;;;;11.54;38.59;99924.84;4410303;32;20048;-74
2022/03/25 09:45:05;;;;;;;22.30;9.85;;;;;;;11.22;38.26;99884.72;4430120;32;20136;-74
2022/03/25 09:47:32;;;;;;;22.65;7.97;;;;;;;11.24;38.56;99879.91;4424093;32;20029;-74
2022/03/25 09:50:05;;;;;;;23.77;8.07;;;;;;;11.44;38.45;99886.84;4424481;32;20056;-73
2022/03/25 09:52:34;;;;;;;25.95;7.45;;;;;;;11.54;38.58;99873.59;4416184;32;20211;-74
2022/03/25 09:55:01;;;;;;;22.85;10.32;;;;;;;11.92;38.31;99920.88;4425835;32;20090;-73
2022/03/25 09:57:34;;;;;;;14.87;7.65;;;;;;;11.68;38.27;99878.72;4412901;32;20022;-73
2022/03/25 10:00:01;;;;;;;16.45;6.80;;;;;;;11.76;38.44;99883.78;4421720;32;20045;-73
2022/03/25 10:02:33;;;;;;;20.80;9.68;;;;;;;12.04;37.89;99911.94;4428556;32;20038;-72
2022/03/25 10:05:12;;;;;;;23.10;8.77;;;;;;;12.14;38.00;99912.97;4431246;32;20424;-72
2022/03/25 10:07:43;;;;;;;20.48;7.32;;;;;;;12.30;38.29;99911.41;4431389;32;20136;-72
2022/03/25 10:10:13;;;;;;;23.75;8.40;;;;;;;12.33;37.78;99915.47;4414724;32;20050;-72
2022/03/25 10:12:42;;;;;;;22.48;8.13;;;;;;;12.20;38.10;99894.97;4429428;32;20089;-72
2022/03/25 10:15:13;;;;;;;13.85;6.43;;;;;;;12.50;37.23;99931.75;4429483;32;20034;-72
2022/03/25 10:18:07;;;;;;;22.70;8.45;;;;;;;12.48;36.92;99928.50;4430977;32;20469;-72
2022/03/25 10:20:35;;;;;;;20.65;6.93;;;;;;;12.52;36.97;99926.94;4423957;32;20060;-72
2022/03/25 10:23:14;;;;;;;16.42;6.30;;;;;;;12.46;36.90;99925.19;4427812;32;20037;-72
2022/03/25 10:25:51;;;;;;;17.48;7.60;;;;;;;12.32;37.20;99892.25;4415418;32;20097;-72
2022/03/25 10:28:25;;;;;;;11.50;6.37;;;;;;;12.59;37.44;99919.53;4431153;32;20039;-73
2022/03/25 10:30:54;;;;;;;19.95;7.80;;;;;;;12.60;37.20;99923.84;4427275;32;20068;-73
2022/03/25 10:33:23;;;;;;;19.02;7.57;;;;;;;12.69;37.49;99925.09;4418419;32;20051;-73
2022/03/25 10:36:02;;;;;;;20.15;8.48;;;;;;;12.72;37.40;99924.63;4430222;32;20091;-73
2022/03/25 10:38:50;;;;;;;15.93;7.15;;;;;;;12.77;37.24;99920.38;4428817;32;20089;-73
2022/03/25 10:41:19;;;;;;;21.55;6.45;;;;;;;12.81;37.06;99929.62;4424194;32;20042;-74
2022/03/25 10:43:59;;;;;;;15.82;8.10;;;;;;;13.02;37.54;99928.94;4429570;32;20038;-73
2022/03/25 10:46:28;;;;;;;19.87;7.45;;;;;;;13.02;38.10;99918.13;4427753;32;20072;-74
2022/03/25 10:48:55;;;;;;;24.40;9.02;;;;;;;12.98;38.31;99922.38;4411827;32;20058;-74
2022/03/25 10:51:22;;;;;;;28.12;9.20;;;;;;;13.14;38.37;99909.13;4413504;32;20947;-73
2022/03/25 10:53:59;;;;;;;28.70;10.20;;;;;;;13.27;38.11;99925.03;4427456;32;20079;-74
2022/03/25 10:56:26;;;;;;;20.27;8.50;;;;;;;13.19;38.24;99871.34;4414570;32;20049;-74
2022/03/25 10:58:57;;;;;;;26.40;9.18;;;;;;;13.01;38.20;99877.81;4426379;32;20050;-75
2022/03/25 11:01:24;;;;;;;27.42;10.48;;;;;;;13.31;38.76;99914.56;4423999;32;20112;-72
2022/03/25 11:03:52;;;;;;;30.35;12.73;;;;;;;13.40;39.01;99886.87;4413331;32;20484;-72
2022/03/25 11:06:19;;;;;;;23.23;11.10;;;;;;;13.70;38.91;99904.59;4410107;32;20030;-73
2022/03/25 11:08:46;;;;;;;30.27;11.85;;;;;;;13.88;38.32;99908.09;4421502;32;20060;-73
2022/03/25 11:11:17;;;;;;;23.02;11.30;;;;;;;14.05;38.16;99913.47;4410069;32;20044;-74
2022/03/25 11:13:45;;;;;;;22.95;9.75;;;;;;;14.39;37.60;99897.09;4429925;32;20038;-73
2022/03/25 11:16:15;;;;;;;31.95;11.10;;;;;;;14.81;36.92;99896.47;4425213;32;20463;-73
2022/03/25 11:18:43;;;;;;;23.20;12.10;;;;;;;15.12;36.84;99889.41;4421331;32;20055;-73
2022/03/25 11:21:12;;;;;;;41.28;13.07;;;;;;;15.36;36.26;99867.34;4408718;32;20426;-74
2022/03/25 11:23:51;;;;;;;29.37;11.05;;;;;;;15.57;35.71;99885.44;4425179;32;20737;-72
2022/03/25 11:26:22;;;;;;;31.60;13.32;;;;;;;15.58;34.39;99864.53;4410002;32;20022;-73
2022/03/25 11:28:52;;;;;;;27.00;10.88;;;;;;;15.14;35.05;99881.88;4425515;32;20058;-73